Latest Coastal Weather Observations for Strahan

IDT60701

Issued at 7:41 am EST Wednesday 25 May 2016 (issued every 10 minutes, with the page automatically refreshed every 10 minutes)

About coastal observations | Map of coastal stations | Coastal observations for TAS | Marine services | Other Formats
Station Details ID: 097072 Name: STRAHAN AERODROME Lat: -42.16 Lon: 145.29 Height: 21.0 m
Data from the previous 72 hours. | See also: Recent months at Strahan
Date/Time
EST
Temp

°C
Wind Pressure Rain
since 9am
mm
Weather Cloud Vis
km
Sea
Height
m
Swell
Dir
 
Speed
knots
Gust
knots
hPa Trend Height
m
Period
s
Dir
25/07:30am 7.3 NNE 7 11 1012.0 - 1.4 - Partly cloudy 10 - - - -
25/07:00am 7.4 NNE 6 9 1012.3 - 1.4 - Cloudy 10 - - - -
25/06:30am 7.3 NNE 7 11 1012.4 - 1.4 - Cloudy 10 - - - -
25/06:00am 6.9 NNE 7 10 1012.5 - 1.4 - Cloudy 10 - - - -
25/05:30am 6.5 NE 8 12 1012.6 - 1.4 - Cloudy 10 - - - -
25/05:00am 6.4 NNE 8 11 1013.3 - 1.4 - Partly cloudy 10 - - - -
25/04:30am 6.4 NNE 9 11 1013.6 - 1.4 - Partly cloudy 10 - - - -
25/04:00am 6.5 NE 9 13 1013.8 - 1.4 - Cloudy 10 - - - -
25/03:30am 6.1 NE 5 8 1014.2 - 1.4 - Cloudy 10 - - - -
25/03:00am 5.4 ENE 4 6 1014.4 - 1.4 - Mostly cloudy 10 - - - -
25/02:30am 5.4 NE 4 6 1014.7 - 1.4 - Partly cloudy 10 - - - -
25/02:00am 5.4 NE 3 5 1014.4 - 1.4 - - 10 - - - -
25/01:30am 5.8 E 4 5 1014.7 - 1.4 - Partly cloudy 10 - - - -
25/01:00am 6.3 ESE 2 5 1015.0 - 1.4 - Partly cloudy 10 - - - -
25/12:30am 6.7 NNE 5 7 1015.6 - 1.4 - Cloudy 10 - - - -
25/12:00am 6.8 NNE 5 6 1015.9 - 1.4 - Mostly cloudy 10 - - - -
 
Date/Time
EST
Temp

°C
Wind Pressure Rain
since 9am
mm
Weather Cloud Vis
km
Sea
Height
m
Swell
Dir
 
Speed
knots
Gust
knots
hPa Trend Height
m
Period
s
Dir
24/11:30pm 7.1 NNW 5 6 1016.1 - 1.4 - Cloudy 10 - - - -
24/11:00pm 7.3 ENE 4 5 1016.4 - 1.4 - Cloudy 10 - - - -
24/10:30pm 7.5 NE 3 5 1016.7 - 1.4 - Cloudy 10 - - - -
24/10:00pm 7.5 NNE 4 6 1016.9 - 1.4 - Cloudy 10 - - - -
24/09:30pm 7.5 NNE 4 6 1017.0 - 1.4 - Cloudy 10 - - - -
24/09:00pm 7.4 NNE 4 5 1017.3 - 1.4 - Cloudy 10 - - - -
24/08:30pm 7.3 NNE 5 7 1017.4 - 1.4 - Cloudy 10 - - - -
24/08:00pm 7.2 NE 3 4 1017.6 - 1.4 - Cloudy 10 - - - -
24/07:30pm 7.4 CALM 0 0 1017.5 - 1.4 - Partly cloudy 10 - - - -
24/07:00pm 7.2 NE 2 4 1017.2 - 1.4 - Partly cloudy 10 - - - -
24/06:30pm 7.8 NE 4 5 1017.0 - 1.4 - Partly cloudy 10 - - - -
24/06:00pm 7.7 ENE 2 4 1017.0 - 1.4 - Cloudy 10 - - - -
24/05:30pm 8.6 CALM 0 0 1016.7 - 1.4 - Partly cloudy 10 - - - -
24/05:00pm 9.2 SE 3 4 1016.7 - 1.4 - Partly cloudy 10 - - - -
24/04:30pm 10.7 SSE 1 3 1016.8 - 1.4 - Partly cloudy 10 - - - -
24/04:00pm 11.1 S 2 6 1016.8 - 1.4 - - 10 - - - -
24/03:30pm 10.7 SE 4 6 1016.6 - 1.4 - Partly cloudy 10 - - - -
24/03:00pm 11.1 SSE 7 9 1016.5 - 1.4 - Mostly clear 10 - - - -
24/02:30pm 11.4 SSE 5 7 1016.3 - 1.4 - Partly cloudy 10 - - - -
24/02:00pm 11.5 SSE 8 11 1016.3 - 1.4 - Partly cloudy 10 - - - -
24/01:30pm 11.0 S 6 9 1016.2 - 1.4 - Partly cloudy 10 - - - -
24/01:28pm 10.8 SSE 6 9 1016.2 - 1.4 - Partly cloudy 10 - - - -
24/01:05pm 10.3 SSE 8 11 1016.8 - 1.2 - Partly cloudy 5 - - - -
24/01:00pm 10.3 SSE 7 11 1016.8 - 1.2 - Partly cloudy 10 - - - -
24/12:30pm 11.0 S 5 9 1016.5 - 1.2 - Partly cloudy 10 - - - -
24/12:11pm 11.0 SE 3 5 1016.6 - 1.2 - Partly cloudy 10 - - - -
24/12:00pm 10.6 SSE 4 6 1016.8 - 1.2 Rain Cloudy 5 - - - -
24/11:30am 10.7 ESE 5 9 1016.9 - 1.0 - Partly cloudy 10 - - - -
24/11:00am 9.7 ESE 3 5 1017.1 - 1.0 - Partly cloudy 10 - - - -
24/10:31am 9.8 SE 6 8 1017.3 - 1.0 - Partly cloudy 10 - - - -
24/10:30am 9.8 SSE 6 8 1017.3 - 1.0 - Partly cloudy 10 - - - -
24/10:11am 9.9 S 4 8 1017.3 - 1.0 - Partly cloudy 5 - - - -
24/10:00am 10.7 ESE 4 5 1017.1 - 0.4 - Partly cloudy 10 - - - -
24/09:51am 9.5 SSE 5 7 1017.1 - 0.4 - Partly cloudy 10 - - - -
24/09:36am 9.1 WNW 4 13 1017.2 - 0.4 - Partly cloudy 5 - - - -
24/09:30am 9.5 N 3 4 1017.1 - 0.0 - Partly cloudy 10 - - - -
24/09:00am 8.7 NNE 3 4 1016.8 - 16.0 Recent precip. Partly cloudy 10 - - - -
24/08:30am 7.1 NNE 5 6 1016.6 - 15.6 - Partly cloudy 10 - - - -
24/08:10am 7.2 NNE 3 4 1016.5 - 15.6 - Partly cloudy 10 - - - -
24/08:00am 7.1 NE 3 4 1016.3 - 15.6 - Partly cloudy 5 - - - -
24/07:50am 6.7 ENE 4 5 1016.2 - 15.4 - Partly cloudy 5 - - - -
24/07:30am 7.0 NNE 5 6 1015.8 - 15.2 - Partly cloudy 10 - - - -
24/07:00am 7.4 E 1 3 1015.6 - 15.2 - Partly cloudy 10 - - - -
24/06:59am 7.5 E 1 3 1015.5 - 15.2 - Partly cloudy 10 - - - -
24/06:45am 7.7 S 1 4 1015.4 - 14.8 - Partly cloudy 5 - - - -
24/06:30am 7.7 CALM 0 0 1015.2 - 14.8 - Partly cloudy 10 - - - -
24/06:00am 7.6 CALM 0 0 1014.8 - 14.8 Rain Cloudy 9 - - - -
24/05:30am 7.8 E 2 3 1014.4 - 14.6 - Partly cloudy 6 - - - -
24/05:28am 7.8 E 2 3 1014.4 - 14.6 - Partly cloudy 6 - - - -
24/05:00am 7.6 SE 5 7 1014.2 - 13.8 - Partly cloudy 4 - - - -
24/04:48am 7.0 ESE 6 11 1014.0 - 13.2 - Partly cloudy 5 - - - -
24/04:30am 6.7 CALM 0 0 1013.6 - 13.0 - Partly cloudy 9 - - - -
24/04:00am 8.3 WSW 4 5 1013.5 - 13.0 - Partly cloudy 10 - - - -
24/03:59am 8.3 WSW 4 6 1013.5 - 13.0 - Partly cloudy 10 - - - -
24/03:30am 7.8 ENE 1 5 1013.6 - 11.6 - Partly cloudy 5 - - - -
24/03:00am 7.6 E 3 5 1013.4 - 11.0 - Partly cloudy 10 - - - -
24/02:30am 7.7 ESE 4 6 1013.4 - 11.0 - Partly cloudy 10 - - - -
24/02:00am 8.9 W 6 10 1013.3 - 11.0 - Partly cloudy 10 - - - -
24/01:30am 7.3 N 4 7 1013.5 - 11.0 - Partly cloudy 10 - - - -
24/01:00am 8.1 NNW 4 6 1013.3 - 11.0 - Partly cloudy 10 - - - -
24/12:46am 8.6 WNW 7 10 1013.2 - 11.0 - Partly cloudy 10 - - - -
24/12:32am 8.4 W 6 10 1013.2 - 11.0 - Partly cloudy 5 - - - -
24/12:30am 8.3 W 6 8 1013.3 - 11.0 - Partly cloudy 6 - - - -
24/12:12am 8.0 W 7 11 1013.3 - 10.6 - Partly cloudy 8 - - - -
24/12:00am 8.2 W 12 19 1013.4 - 10.2 Rain Cloudy 5 - - - -
 
Date/Time
EST
Temp

°C
Wind Pressure Rain
since 9am
mm
Weather Cloud Vis
km
Sea
Height
m
Swell
Dir
 
Speed
knots
Gust
knots
hPa Trend Height
m
Period
s
Dir
23/11:38pm 7.9 NNE 6 10 1013.4 - 9.0 - Partly cloudy 5 - - - -
23/11:30pm 8.0 NE 6 9 1013.1 - 8.4 - Partly cloudy 10 - - - -
23/11:00pm 8.2 E 4 5 1013.6 - 8.2 - Partly cloudy 10 - - - -
23/10:30pm 9.1 SSW 3 5 1013.7 - 8.2 - Partly cloudy 10 - - - -
23/10:00pm 9.4 SW 7 11 1014.0 - 8.2 - Partly cloudy 10 - - - -
23/09:30pm 8.3 ENE 2 4 1014.1 - 8.2 - Partly cloudy 10 - - - -
23/09:00pm 9.5 WSW 9 13 1013.8 - 8.2 - Partly cloudy 10 - - - -
23/08:30pm 8.6 SSW 11 18 1013.9 - 8.2 - Partly cloudy 10 - - - -
23/08:19pm 9.4 WSW 13 27 1013.8 - 8.2 - Partly cloudy 10 - - - -
23/08:00pm 7.9 SE 1 6 1013.7 - 8.2 - Partly cloudy 10 - - - -
23/07:30pm 8.1 SW 8 15 1013.6 - 8.2 - Partly cloudy 10 - - - -
23/07:00pm 9.1 SW 18 32 1013.6 - 8.2 - Partly cloudy 8 - - - -
23/06:56pm 9.9 WSW 15 32 1013.4 - 8.2 - Partly cloudy 10 - - - -
23/06:30pm 9.5 SW 11 17 1013.2 - 8.2 - Partly cloudy 10 - - - -
23/06:00pm 8.8 WSW 14 19 1012.7 - 8.2 Recent precip. Cloudy 10 - - - -
23/05:30pm 9.1 SSW 11 16 1012.6 - 7.8 - Partly cloudy 10 - - - -
23/05:00pm 9.8 WSW 17 24 1012.1 - 7.8 - Partly cloudy 10 - - - -
23/04:41pm 9.5 WSW 20 30 1011.9 - 7.8 - Partly cloudy 10 - - - -
23/04:30pm 10.1 WSW 20 28 1011.7 - 7.8 - Partly cloudy 10 - - - -
23/04:00pm 9.7 WSW 17 27 1011.2 - 7.8 - Partly cloudy 10 - - - -
23/03:30pm 10.8 WSW 19 29 1010.8 - 7.8 - Partly cloudy 10 - - - -
23/03:01pm 10.4 WSW 20 30 1010.3 - 7.8 - Partly cloudy 10 - - - -
23/03:00pm 10.4 WSW 21 30 1010.3 - 7.8 Recent precip. Mostly cloudy 10 - - - -
23/02:34pm 10.4 SW 15 25 1009.8 - 7.8 - Partly cloudy 9 - - - -
23/02:30pm 10.0 SW 16 25 1009.8 - 7.8 - Partly cloudy 10 - - - -
23/02:13pm 9.4 SW 17 25 1009.5 - 7.8 - Partly cloudy 7 - - - -
23/02:04pm 8.9 WSW 16 25 1009.4 - 7.6 - Partly cloudy 6 - - - -
23/02:00pm 8.8 WSW 20 39 1009.2 - 7.6 - Partly cloudy 3 - - - -
23/01:51pm 8.6 WSW 25 40 1009.3 - 7.0 - Partly cloudy 5 - - - -
23/01:49pm 9.9 WSW 22 40 1009.2 - 6.8 - Partly cloudy 10 - - - -
23/01:31pm 10.9 WSW 17 30 1008.7 - 6.8 - Partly cloudy 10 - - - -
23/01:30pm 10.8 WSW 17 25 1008.6 - 6.8 - Partly cloudy 10 - - - -
23/01:00pm 10.6 WSW 21 35 1008.3 - 6.8 - Partly cloudy 7 - - - -
23/12:35pm 9.9 WSW 16 27 1008.2 - 6.6 - Partly cloudy 10 - - - -
23/12:30pm 9.6 WSW 18 25 1008.1 - 6.6 - Partly cloudy 10 - - - -
23/12:22pm 9.4 WSW 19 25 1008.1 - 6.6 - Partly cloudy 10 - - - -
23/12:03pm 9.5 W 16 32 1008.0 - 6.2 - Partly cloudy 5 - - - -
23/12:02pm 9.5 W 15 32 1008.0 - 6.2 - Partly cloudy 8 - - - -
23/12:00pm 10.1 WSW 13 23 1007.9 - 5.8 Recent precip. Cloudy 10 - - - -
23/11:50am 9.5 W 13 21 1007.8 - 5.8 - Partly cloudy 9 - - - -
23/11:30am 9.6 W 17 27 1007.9 - 5.2 - Partly cloudy 4 - - - -
23/11:29am 9.7 W 16 27 1007.9 - 4.8 - Partly cloudy 5 - - - -
23/11:28am 9.8 W 15 27 1007.9 - 4.8 - Partly cloudy 7 - - - -
23/11:00am 9.5 WSW 12 19 1007.9 - 4.4 - Partly cloudy 8 - - - -
23/10:47am 9.5 WSW 15 20 1007.9 - 4.2 - Partly cloudy 7 - - - -
23/10:31am 9.3 W 16 26 1007.6 - 3.6 - Partly cloudy 4 - - - -
23/10:30am 9.2 W 17 26 1007.6 - 3.4 - Partly cloudy 4 - - - -
23/10:20am 9.3 WSW 17 24 1007.6 - 2.4 - Partly cloudy 5 - - - -
23/10:00am 10.0 W 16 22 1006.9 - 1.4 - Partly cloudy 6 - - - -
23/09:48am 9.8 W 18 25 1006.7 - 1.0 - Partly cloudy 7 - - - -
23/09:30am 10.0 W 22 32 1006.2 - 0.6 - Partly cloudy 4 - - - -
23/09:27am 10.0 W 24 32 1006.2 - 0.2 - Partly cloudy 5 - - - -
23/09:15am 11.0 W 17 29 1005.8 - 0.0 - Partly cloudy 10 - - - -
23/09:00am 11.2 W 11 19 1005.4 - 23.2 Recent precip. Cloudy 9 - - - -
23/08:30am 10.0 W 7 10 1005.2 - 23.2 - Partly cloudy 8 - - - -
23/08:24am 10.0 W 7 11 1005.2 - 23.2 - Partly cloudy 8 - - - -
23/08:00am 9.7 WNW 11 24 1005.1 - 22.2 - Partly cloudy 3 - - - -
23/07:59am 10.0 WNW 11 24 1005.1 - 22.0 - Partly cloudy 4 - - - -
23/07:32am 11.1 W 7 9 1004.7 - 19.4 - Partly cloudy 5 - - - -
23/07:30am 11.1 W 7 9 1004.7 - 19.4 - Partly cloudy 6 - - - -
23/07:00am 11.1 WSW 9 12 1004.4 - 18.8 - Partly cloudy 6 - - - -
23/06:30am 11.1 W 10 14 1003.9 - 18.2 - Partly cloudy 6 - - - -
23/06:29am 11.1 W 10 14 1003.9 - 18.2 - Partly cloudy 7 - - - -
23/06:00am 10.8 NNW 8 11 1003.6 - 16.6 Rain Cloudy 5 - - - -
23/05:30am 10.7 N 6 9 1003.5 - 12.8 - Partly cloudy 2 - - - -
23/05:11am 10.8 NNE 6 8 1003.7 - 10.2 - Partly cloudy 5 - - - -
23/05:00am 10.8 NNE 7 9 1003.4 - 10.2 - Partly cloudy 10 - - - -
23/04:30am 10.8 NE 6 8 1003.4 - 10.2 - Partly cloudy 10 - - - -
23/04:00am 10.9 NNE 7 10 1004.5 - 9.8 - Partly cloudy 10 - - - -
23/03:30am 11.1 NNE 7 11 1004.4 - 9.8 - Partly cloudy 10 - - - -
23/03:09am 11.3 NNE 8 11 1004.9 - 9.6 - Partly cloudy 8 - - - -
23/03:00am 11.5 NNE 8 13 1005.3 - 9.6 Rain Cloudy 6 - - - -
23/02:52am 11.5 NNE 7 10 1005.3 - 9.0 - Partly cloudy 5 - - - -
23/02:47am 11.5 NE 6 9 1005.2 - 8.8 - Partly cloudy 6 - - - -
23/02:30am 11.6 N 6 9 1005.6 - 8.2 - Partly cloudy 5 - - - -
23/02:26am 11.6 N 6 10 1005.6 - 8.0 - Partly cloudy 5 - - - -
23/02:18am 11.7 NNW 8 10 1005.7 - 7.4 - Partly cloudy 9 - - - -
23/02:00am 11.8 NW 13 19 1005.8 - 7.0 - Partly cloudy 5 - - - -
23/01:52am 11.8 NW 13 19 1006.0 - 6.4 - Partly cloudy 5 - - - -
23/01:47am 11.9 NW 13 17 1006.0 - 6.2 - Partly cloudy 6 - - - -
23/01:30am 11.8 NW 14 24 1005.7 - 5.4 - Partly cloudy 5 - - - -
23/01:00am 12.2 NNW 20 36 1004.9 - 3.4 - Partly cloudy 3 - - - -
23/12:56am 12.6 N 17 36 1004.8 - 3.0 - Partly cloudy 5 - - - -
23/12:55am 13.6 N 15 35 1004.8 - 2.4 - Partly cloudy 7 - - - -
23/12:30am 14.8 NNE 12 19 1003.6 - 2.0 - Partly cloudy 10 - - - -
23/12:00am 14.6 NNE 13 21 1004.2 - 2.0 - Mostly cloudy 10 - - - -
 
Date/Time
EST
Temp

°C
Wind Pressure Rain
since 9am
mm
Weather Cloud Vis
km
Sea
Height
m
Swell
Dir
 
Speed
knots
Gust
knots
hPa Trend Height
m
Period
s
Dir
22/11:30pm 14.3 NNE 13 19 1005.0 - 2.0 - Partly cloudy 10 - - - -
22/11:00pm 14.4 N 9 14 1005.8 - 2.0 - Partly cloudy 10 - - - -
22/10:30pm 14.8 N 10 17 1006.4 - 1.2 - Partly cloudy 10 - - - -
22/10:00pm 16.3 N 12 20 1006.6 - 0.2 - Partly cloudy 10 - - - -
22/09:30pm 17.8 N 14 22 1006.7 - 0.2 - Partly cloudy 10 - - - -
22/09:00pm 18.0 N 15 22 1006.5 - 0.2 - Cloudy 10 - - - -
22/08:42pm 17.8 NNE 15 25 1006.5 - 0.2 - Partly cloudy 10 - - - -
22/08:30pm 17.6 NNE 13 21 1006.7 - 0.2 - Partly cloudy 10 - - - -
22/08:00pm 17.3 NNE 14 22 1007.0 - 0.2 - - 10 - - - -
22/07:34pm 17.5 NNE 15 28 1007.1 - 0.2 - Partly cloudy 10 - - - -
22/07:30pm 17.4 N 13 28 1007.3 - 0.2 - Partly cloudy 10 - - - -
22/07:00pm 16.7 NNE 13 20 1007.4 - 0.2 - Partly cloudy 10 - - - -
22/06:30pm 16.3 NNE 12 21 1007.5 - 0.2 - - 10 - - - -
22/06:00pm 16.6 NNE 14 24 1008.1 - 0.2 - - 10 - - - -
22/05:36pm 16.5 NNE 15 25 1008.5 - 0.2 - - 10 - - - -
22/05:30pm 16.7 NNE 17 25 1008.5 - 0.2 - - 10 - - - -
22/05:16pm 16.8 NNE 17 28 1008.7 - 0.2 - - 10 - - - -
22/05:00pm 16.7 NNE 15 24 1008.8 - 0.2 - - 10 - - - -
22/04:30pm 16.9 N 10 22 1009.6 - 0.2 - - 10 - - - -
22/04:00pm 17.3 N 15 24 1009.6 - 0.2 - - 10 - - - -
22/03:30pm 17.7 N 12 19 1009.4 - 0.2 - - 10 - - - -
22/03:00pm 17.9 N 15 26 1009.4 - 0.2 - Mostly clear 10 - - - -
22/02:30pm 17.8 N 15 26 1009.9 - 0.2 - - 10 - - - -
22/02:26pm 17.9 N 15 26 1010.1 - 0.2 - - 10 - - - -
22/02:00pm 17.7 N 16 23 1010.7 - 0.2 - - 10 - - - -
22/01:40pm 17.7 N 15 25 1010.4 - 0.2 - - 10 - - - -
22/01:30pm 17.7 N 16 23 1010.6 - 0.2 - - 10 - - - -
22/01:00pm 17.5 NNW 13 18 1010.8 - 0.2 - - 10 - - - -
22/12:30pm 17.7 NNE 12 19 1010.5 - 0.2 - - 10 - - - -
22/12:00pm 17.7 N 12 22 1011.3 - 0.2 Recent precip. - 10 - - - -
22/11:30am 18.2 N 11 19 1012.0 - 0.2 - - 10 - - - -
22/11:00am 17.9 NNE 11 19 1012.5 - 0.0 - - 10 - - - -
22/10:30am 17.2 NNE 14 23 1012.9 - 0.0 - - 10 - - - -
22/10:00am 16.5 NNE 14 23 1013.1 - 0.0 - - 10 - - - -
22/09:30am 16.3 NNE 12 19 1013.6 - 0.0 - - 10 - - - -
22/09:00am 16.0 NNE 11 18 1013.7 - 0.0 - - 10 - - - -
22/08:30am 15.7 NNE 15 28 1013.7 - 0.0 - - 10 - - - -
22/08:28am 15.6 NNE 15 28 1013.8 - 0.0 - - 10 - - - -
22/08:00am 14.7 NNE 13 19 1014.4 - 0.0 - - 10 - - - -

Other Formats:

Comma delimited format used in spreadsheet applications
http://www.bom.gov.au/fwo/IDT60701/IDT60701.94956.axf

JavaScript Object Notation format (JSON) in row-major order
http://www.bom.gov.au/fwo/IDT60701/IDT60701.94956.json